Palpala, Argentina
Current Conditions -  °F | °C
As of 1:00 AM on Friday 19 Dec 2014 (Local Time) from SASJ Reporting Station
Overcast Overcast  
Wind Chill: 66°   Ceiling: 7000
Heat Index: 66°   Visibility: 6mi
Dew Point: 59°   Wind: 8mph
Humidity: 78%   Direction: 360°N
Pressure: 29.97"   Gusts: NA
Location:  24.25°S, 65.2°W
Report Text: SASJ 190400Z 36007KT 9999 FEW010 SCT020OVC070 19/15 Q1015
Loading
Personal Weather Stations






























Interactive Weather Map New forecast layout! Learn more

10-Day Weather Forecast

Advertisements
Track Severe Weather on mobile